Time;durP1;ratioP1;P1;durP2;ratioP2;P2;SDS_P1;SDS_P2;PMS_P1;PMS_P2;Temp;Humidity;BMP_temperature;BMP_pressure;BME280_temperature;BME280_humidity;BME280_pressure;Samples;Min_cycle;Max_cycle;Signal;HPM_P1;HPM_P2
2021/01/26 00:01:35;;;;;;;8.40;5.92;;;;;;;7.83;80.06;98010.09;1683019;84;21158;-38
2021/01/26 00:04:03;;;;;;;6.83;5.47;;;;;;;7.82;79.99;98009.25;1693246;84;21158;-35
2021/01/26 00:06:31;;;;;;;6.37;5.08;;;;;;;7.81;80.02;98004.91;1701936;84;21145;-40
2021/01/26 00:08:59;;;;;;;7.60;6.17;;;;;;;7.80;79.96;98005.40;1695871;84;21129;-38
2021/01/26 00:11:26;;;;;;;7.58;6.00;;;;;;;7.80;79.93;98005.89;1711546;82;21190;-39
2021/01/26 00:13:54;;;;;;;7.60;6.70;;;;;;;7.78;79.89;98003.84;1718837;82;21567;-38
2021/01/26 00:16:21;;;;;;;8.93;5.70;;;;;;;7.76;79.85;98007.11;1710426;82;21478;-39
2021/01/26 00:52:54;;;;;;;2.70;2.33;;;;;;;6.79;80.35;98019.67;1797039;77;22973;-40
2021/01/26 00:55:25;;;;;;;3.10;2.25;;;;;;;6.63;79.70;98030.69;1719284;81;21150;-38
2021/01/26 00:57:53;;;;;;;3.10;2.27;;;;;;;6.54;79.35;98036.22;1729226;81;21148;-42
2021/01/26 01:00:25;;;;;;;1.92;1.72;;;;;;;6.47;78.91;98039.00;1714566;82;21582;-40
2021/01/26 01:02:53;;;;;;;1.52;1.40;;;;;;;6.40;78.52;98047.93;1723218;82;21169;-41
2021/01/26 01:05:21;;;;;;;2.15;1.72;;;;;;;6.36;78.39;98050.94;1723925;82;21593;-41
2021/01/26 01:07:49;;;;;;;2.17;1.98;;;;;;;6.32;78.03;98050.32;1725600;82;21145;-40
2021/01/26 01:10:22;;;;;;;2.60;2.15;;;;;;;6.34;77.83;98056.83;1727491;81;21149;-40
2021/01/26 01:12:50;;;;;;;2.27;1.90;;;;;;;6.34;77.49;98047.08;1729908;82;21173;-37
2021/01/26 01:15:19;;;;;;;2.98;1.70;;;;;;;6.29;77.30;98049.25;1741154;81;21587;-39
2021/01/26 01:17:47;;;;;;;2.92;2.10;;;;;;;6.24;77.07;98045.63;1739985;81;21147;-41
2021/01/26 01:20:17;;;;;;;1.82;1.27;;;;;;;6.24;76.75;98048.28;1742905;80;21153;-40
2021/01/26 01:22:46;;;;;;;1.15;1.00;;;;;;;6.21;76.53;98062.25;1719838;81;21162;-38
2021/01/26 01:25:14;;;;;;;1.75;1.25;;;;;;;6.18;76.10;98071.27;1721903;81;21161;-39
2021/01/26 01:27:42;;;;;;;1.70;1.07;;;;;;;6.13;75.93;98072.60;1724206;82;21178;-38
2021/01/26 01:30:11;;;;;;;1.00;0.95;;;;;;;6.11;75.73;98081.13;1721172;82;21590;-40
2021/01/26 01:32:38;;;;;;;0.82;0.60;;;;;;;6.04;75.37;98086.88;1720460;83;21122;-39
2021/01/26 01:35:08;;;;;;;2.05;0.68;;;;;;;6.00;75.14;98097.36;1715994;83;21169;-40
2021/01/26 01:37:36;;;;;;;1.05;0.80;;;;;;;5.95;74.39;98115.88;1722106;81;21138;-43
2021/01/26 01:40:05;;;;;;;2.42;0.90;;;;;;;5.84;73.98;98121.94;1720248;81;21153;-39
2021/01/26 01:42:32;;;;;;;1.20;0.72;;;;;;;5.70;73.29;98126.97;1713225;82;21163;-40
2021/01/26 01:45:00;;;;;;;0.70;0.55;;;;;;;5.56;73.04;98144.34;1714106;81;21157;-39
2021/01/26 01:47:30;;;;;;;1.10;0.70;;;;;;;5.45;73.33;98170.74;1719296;83;21121;-40
2021/01/26 01:49:59;;;;;;;4.03;0.68;;;;;;;5.39;73.11;98176.84;1714657;81;21434;-41
2021/01/26 01:52:30;;;;;;;1.23;0.83;;;;;;;5.32;72.96;98187.50;1709377;83;21182;-39
2021/01/26 01:55:05;;;;;;;0.93;0.82;;;;;;;5.26;72.99;98201.14;1701930;83;21130;-39
2021/01/26 01:57:42;;;;;;;0.85;0.57;;;;;;;5.20;72.70;98201.59;1695289;83;21169;-37
2021/01/26 02:00:14;;;;;;;0.70;0.70;;;;;;;5.11;72.89;98218.94;1760338;79;21162;-40
2021/01/26 02:02:50;;;;;;;1.37;0.90;;;;;;;5.08;73.08;98215.69;1765399;79;22067;-40
2021/01/26 02:05:18;;;;;;;0.85;0.70;;;;;;;5.03;72.95;98221.78;1768331;79;21126;-41
2021/01/26 02:07:46;;;;;;;1.37;1.02;;;;;;;4.93;73.02;98240.91;1770815;80;21161;-41
2021/01/26 02:10:14;;;;;;;1.35;1.05;;;;;;;4.88;73.21;98245.67;1762472;79;21129;-42
2021/01/26 02:12:42;;;;;;;1.70;1.10;;;;;;;4.83;73.32;98269.41;1770078;80;21142;-40
2021/01/26 02:15:10;;;;;;;1.22;1.12;;;;;;;4.80;73.47;98282.34;1766727;79;21693;-39
2021/01/26 02:17:58;;;;;;;1.72;1.20;;;;;;;4.81;73.51;98287.98;1765317;79;21110;-39
2021/01/26 02:21:14;;;;;;;1.82;1.67;;;;;;;4.77;73.35;98296.61;1770318;79;21582;-39
2021/01/26 02:24:22;;;;;;;3.52;2.05;;;;;;;4.72;73.28;98315.05;1767924;79;21279;-39
2021/01/26 02:27:10;;;;;;;2.33;1.55;;;;;;;4.66;73.25;98304.44;1764473;80;21134;-39
2021/01/26 02:30:24;;;;;;;1.72;1.40;;;;;;;4.59;73.27;98311.08;1766700;79;21170;-37
2021/01/26 02:33:20;;;;;;;2.70;1.72;;;;;;;4.51;73.03;98318.66;1767941;80;21139;-39
2021/01/26 02:36:29;;;;;;;3.10;1.65;;;;;;;4.45;72.90;98325.68;1769000;80;21147;-38
2021/01/26 02:39:32;;;;;;;2.37;1.80;;;;;;;4.36;73.08;98336.39;1760936;79;21181;-37
2021/01/26 02:42:32;;;;;;;2.80;1.80;;;;;;;4.30;73.20;98342.90;1764754;80;21558;-40
2021/01/26 02:45:23;;;;;;;3.47;2.45;;;;;;;4.25;73.04;98345.00;1769686;79;21678;-42
2021/01/26 02:48:09;;;;;;;;;;;;;;;4.20;73.16;98355.02;1768544;80;21126;-41
2021/01/26 02:51:04;;;;;;;2.98;2.08;;;;;;;4.15;73.36;98360.23;1758595;80;20169;-40
2021/01/26 02:53:56;;;;;;;3.95;2.70;;;;;;;4.10;73.21;98369.27;1730764;81;21656;-40
2021/01/26 02:56:44;;;;;;;5.17;3.30;;;;;;;4.01;73.26;98355.39;1759582;80;21098;-36
2021/01/26 02:59:40;;;;;;;5.50;3.77;;;;;;;3.92;73.39;98360.41;1763071;79;21609;-39
2021/01/26 03:02:31;;;;;;;5.85;4.28;;;;;;;3.84;73.59;98354.31;1718247;81;21538;-39
2021/01/26 03:05:10;;;;;;;5.05;4.28;;;;;;;3.80;73.69;98356.28;1759389;80;21142;-36
2021/01/26 03:07:45;;;;;;;6.33;4.78;;;;;;;3.75;73.39;98362.80;1759654;80;21177;-41
2021/01/26 03:10:16;;;;;;;5.72;4.75;;;;;;;3.71;73.38;98371.87;1767189;80;21140;-40
2021/01/26 03:12:55;;;;;;;5.85;4.25;;;;;;;3.64;73.68;98374.88;1736209;81;21130;-38
2021/01/26 03:15:28;;;;;;;6.12;4.72;;;;;;;3.60;73.50;98377.34;1742675;80;21161;-41
2021/01/26 03:17:59;;;;;;;5.53;4.25;;;;;;;3.58;73.64;98393.73;1764026;80;21095;-37
2021/01/26 03:20:49;;;;;;;;;;;;;;;3.59;73.54;98410.38;1762630;80;21103;-40
2021/01/26 03:23:20;;;;;;;6.85;5.20;;;;;;;3.61;73.51;98412.45;1763134;79;20175;-39
2021/01/26 03:25:51;;;;;;;6.22;4.95;;;;;;;3.59;73.31;98413.02;1759021;80;21146;-38
2021/01/26 03:28:19;;;;;;;6.40;5.08;;;;;;;3.58;73.37;98404.27;1768000;79;21134;-41
2021/01/26 03:30:49;;;;;;;7.22;5.35;;;;;;;3.58;73.17;98408.67;1764974;79;21134;-37
2021/01/26 03:33:26;;;;;;;6.67;4.83;;;;;;;3.60;73.06;98412.06;1761641;79;21134;-41
2021/01/26 03:35:54;;;;;;;7.95;5.87;;;;;;;3.59;73.11;98407.75;1743426;80;21149;-40
2021/01/26 03:38:24;;;;;;;8.05;6.45;;;;;;;3.58;72.78;98417.45;1764439;80;21114;-39
2021/01/26 03:40:53;;;;;;;7.33;5.65;;;;;;;3.51;72.59;98421.88;1759257;80;21138;-37
2021/01/26 03:43:21;;;;;;;6.83;5.37;;;;;;;3.43;72.89;98429.78;1769842;80;21141;-38
2021/01/26 03:46:13;;;;;;;6.65;5.90;;;;;;;3.43;73.00;98434.22;1763707;79;22034;-38
2021/01/26 03:49:09;;;;;;;7.00;5.95;;;;;;;3.43;72.96;98441.64;1758528;79;21137;-36
2021/01/26 03:52:01;;;;;;;7.55;6.72;;;;;;;3.45;72.98;98442.41;1700069;82;21158;-38
2021/01/26 03:54:57;;;;;;;9.53;7.12;;;;;;;3.47;73.05;98458.10;1770558;79;21582;-37
2021/01/26 03:57:47;;;;;;;8.30;6.62;;;;;;;3.49;72.83;98443.05;1769857;80;22149;-39
2021/01/26 04:00:37;;;;;;;9.95;7.42;;;;;;;3.49;72.66;98447.00;1775422;80;21123;-39
2021/01/26 04:03:41;;;;;;;9.15;6.58;;;;;;;3.46;72.55;98441.92;1768315;79;21519;-40
2021/01/26 04:06:27;;;;;;;8.68;7.10;;;;;;;3.42;72.23;98457.06;1770469;80;21673;-39
2021/01/26 04:08:58;;;;;;;11.00;7.75;;;;;;;3.38;72.35;98458.69;1772006;79;21155;-38
2021/01/26 04:11:28;;;;;;;;;;;;;;;3.34;73.04;98455.37;1767552;80;21622;-41
2021/01/26 04:14:13;;;;;;;8.83;7.53;;;;;;;3.39;73.25;98458.57;1764980;79;20156;-40
2021/01/26 04:16:58;;;;;;;7.97;6.72;;;;;;;3.43;72.74;98468.00;1763997;80;21616;-44
2021/01/26 04:19:43;;;;;;;9.13;7.30;;;;;;;3.46;72.29;98466.96;1796311;78;22764;-39
2021/01/26 04:22:12;;;;;;;9.43;7.03;;;;;;;3.47;72.60;98462.05;1771909;79;21552;-42
2021/01/26 04:24:40;;;;;;;11.45;8.50;;;;;;;3.56;71.31;98485.22;1782182;80;21119;-41
2021/01/26 04:27:16;;;;;;;8.70;7.10;;;;;;;3.55;71.35;98495.38;1724072;81;21496;-41
2021/01/26 04:29:43;;;;;;;8.95;7.25;;;;;;;3.54;70.82;98502.07;1747974;81;21109;-40
2021/01/26 04:32:10;;;;;;;10.82;7.67;;;;;;;3.50;70.47;98495.28;1724731;83;21197;-42
2021/01/26 04:34:38;;;;;;;9.18;7.42;;;;;;;3.46;70.60;98505.17;1725993;81;21161;-38
2021/01/26 04:37:06;;;;;;;8.98;7.17;;;;;;;3.45;70.13;98510.05;1721650;81;21149;-40
2021/01/26 04:39:34;;;;;;;8.68;7.62;;;;;;;3.43;70.29;98517.23;1705220;82;21129;-41
2021/01/26 04:42:16;;;;;;;10.40;7.50;;;;;;;3.44;70.25;98527.66;1715701;83;21178;-40
2021/01/26 04:45:13;;;;;;;10.20;7.47;;;;;;;3.44;70.31;98525.02;1714945;83;21137;-40
2021/01/26 04:48:01;;;;;;;9.45;6.75;;;;;;;3.44;70.15;98531.61;1720467;81;21154;-47
2021/01/26 04:50:38;;;;;;;8.85;7.28;;;;;;;3.42;70.06;98536.59;1724524;81;21117;-39
2021/01/26 04:53:46;;;;;;;7.62;6.00;;;;;;;3.42;70.08;98543.18;1742708;81;21146;-41
2021/01/26 04:56:22;;;;;;;10.25;7.03;;;;;;;3.40;69.85;98547.69;1715602;82;21181;-44
2021/01/26 04:59:12;;;;;;;9.18;6.95;;;;;;;3.37;69.64;98550.04;1732009;81;21203;-40
2021/01/26 05:01:48;;;;;;;8.13;6.25;;;;;;;3.38;69.49;98557.50;1720732;81;21190;-41
2021/01/26 05:04:24;;;;;;;9.25;7.00;;;;;;;3.36;69.20;98566.80;1731431;81;21145;-41
2021/01/26 05:06:57;;;;;;;9.25;6.55;;;;;;;3.33;68.80;98573.58;1708091;82;21121;-38
2021/01/26 05:09:29;;;;;;;8.00;6.00;;;;;;;3.29;68.93;98568.09;1696124;81;21137;-39
2021/01/26 05:12:00;;;;;;;7.25;5.65;;;;;;;3.25;68.89;98576.66;1729125;81;21107;-39
2021/01/26 05:14:35;;;;;;;9.65;6.40;;;;;;;3.23;69.03;98587.75;1710027;82;21182;-41
2021/01/26 05:17:08;;;;;;;8.93;6.03;;;;;;;3.23;69.02;98586.44;1736109;81;21150;-40
2021/01/26 05:19:47;;;;;;;7.75;6.00;;;;;;;3.24;68.68;98589.91;1737557;80;21174;-41
2021/01/26 05:22:28;;;;;;;8.10;6.45;;;;;;;3.23;68.70;98593.50;1733270;80;21176;-47
2021/01/26 05:25:06;;;;;;;6.97;5.25;;;;;;;3.23;68.54;98604.03;1740481;80;21134;-40
2021/01/26 05:27:34;;;;;;;6.90;4.90;;;;;;;3.24;68.76;98601.29;1721552;82;21125;-41
2021/01/26 05:30:05;;;;;;;9.43;6.10;;;;;;;3.25;68.53;98603.45;1718364;82;21178;-40
2021/01/26 05:32:34;;;;;;;7.00;5.25;;;;;;;3.23;68.27;98632.54;1712532;81;21181;-41
2021/01/26 05:35:03;;;;;;;8.08;5.33;;;;;;;3.19;67.91;98629.69;1728871;83;21157;-39
2021/01/26 05:37:31;;;;;;;7.42;6.12;;;;;;;3.18;68.00;98634.59;1719748;81;21186;-40
2021/01/26 05:40:13;;;;;;;6.85;5.72;;;;;;;3.20;68.12;98639.75;1717882;82;21173;-40
2021/01/26 05:42:41;;;;;;;7.37;5.10;;;;;;;3.23;67.56;98625.11;1638954;87;21175;-41
2021/01/26 05:45:17;;;;;;;7.83;5.53;;;;;;;3.20;67.63;98639.30;1636530;86;21927;-40
2021/01/26 05:47:45;;;;;;;6.65;4.62;;;;;;;3.19;67.66;98640.70;1629730;87;21203;-42
2021/01/26 05:50:25;;;;;;;7.90;5.70;;;;;;;3.18;67.52;98653.03;1619852;86;21316;-39
2021/01/26 05:52:53;;;;;;;7.08;5.60;;;;;;;3.20;67.32;98656.88;1631323;86;21194;-41
2021/01/26 05:55:28;;;;;;;7.30;5.37;;;;;;;3.22;67.47;98655.84;1640240;86;21216;-40
2021/01/26 05:57:58;;;;;;;5.50;4.45;;;;;;;3.22;67.28;98657.17;1628695;86;21222;-39
2021/01/26 06:00:34;;;;;;;6.50;4.90;;;;;;;3.25;67.00;98660.97;1809103;78;22948;-41
2021/01/26 06:03:20;;;;;;;5.35;3.50;;;;;;;3.23;67.13;98667.27;1777290;80;21157;-40
2021/01/26 06:06:09;;;;;;;6.12;4.35;;;;;;;3.25;66.91;98677.22;1777875;79;21105;-39
2021/01/26 06:08:54;;;;;;;5.90;4.58;;;;;;;3.26;66.87;98672.34;1741605;81;21622;-41
2021/01/26 06:11:29;;;;;;;7.60;4.50;;;;;;;3.27;66.53;98679.78;1723931;82;21145;-40
2021/01/26 06:14:14;;;;;;;5.83;4.47;;;;;;;3.26;66.43;98692.11;1718191;82;21142;-42
2021/01/26 06:16:42;;;;;;;5.85;4.08;;;;;;;3.29;67.85;98700.31;1716061;82;21157;-41
2021/01/26 06:19:14;;;;;;;5.33;3.83;;;;;;;3.36;68.00;98698.55;1721854;82;21209;-40
2021/01/26 06:21:49;;;;;;;7.12;4.90;;;;;;;3.40;67.36;98707.13;1721429;82;21617;-41
2021/01/26 06:24:23;;;;;;;6.50;3.90;;;;;;;3.45;67.44;98690.58;1721653;81;21134;-40
2021/01/26 06:27:14;;;;;;;5.80;4.00;;;;;;;3.52;66.88;98701.62;1723381;82;21141;-40
2021/01/26 06:30:04;;;;;;;5.40;3.52;;;;;;;3.57;66.48;98702.20;1723391;82;21142;-39
2021/01/26 06:32:49;;;;;;;5.90;3.98;;;;;;;3.60;66.24;98711.25;1706336;82;21192;-40
2021/01/26 06:35:25;;;;;;;7.00;4.03;;;;;;;3.60;66.13;98715.20;1720620;81;21582;-40
2021/01/26 06:38:39;;;;;;;5.90;4.22;;;;;;;3.61;65.66;98715.13;1719786;82;21424;-40
2021/01/26 06:41:30;;;;;;;4.75;3.20;;;;;;;3.59;65.46;98717.48;1723792;81;21189;-40
2021/01/26 06:44:15;;;;;;;7.92;3.65;;;;;;;3.56;65.18;98735.63;1750574;81;21481;-39
2021/01/26 06:47:05;;;;;;;4.85;3.15;;;;;;;3.56;65.08;98755.41;1719969;83;21149;-41
2021/01/26 06:49:53;;;;;;;4.33;3.20;;;;;;;3.55;64.58;98752.37;1692963;81;21174;-40
2021/01/26 06:52:35;;;;;;;6.67;4.20;;;;;;;3.51;64.62;98753.97;1723240;81;21149;-41
2021/01/26 06:55:28;;;;;;;7.00;4.83;;;;;;;3.47;64.27;98765.14;1741307;81;21625;-39
2021/01/26 06:58:25;;;;;;;5.50;3.80;;;;;;;3.48;64.73;98760.27;1740438;81;21137;-51
2021/01/26 07:01:13;;;;;;;4.60;3.12;;;;;;;3.51;64.65;98769.79;1685902;83;21150;-40
2021/01/26 07:04:07;;;;;;;5.55;3.65;;;;;;;3.50;64.46;98778.14;1695636;83;21134;-40
2021/01/26 07:07:14;;;;;;;5.42;3.80;;;;;;;3.47;64.51;98781.80;1634180;86;21378;-41
2021/01/26 07:09:58;;;;;;;6.75;3.62;;;;;;;3.48;64.42;98785.30;1692099;83;21244;-42
2021/01/26 07:12:57;;;;;;;5.65;3.83;;;;;;;3.47;64.53;98793.66;1684393;83;21161;-40
2021/01/26 07:15:39;;;;;;;5.17;3.20;;;;;;;3.49;64.52;98783.52;1691370;83;21164;-40
2021/01/26 07:18:39;;;;;;;4.92;3.85;;;;;;;3.51;64.43;98796.15;1690696;83;21162;-42
2021/01/26 07:21:50;;;;;;;5.05;3.60;;;;;;;3.51;64.43;98800.95;1686279;83;21169;-39
2021/01/26 07:25:00;;;;;;;4.95;3.47;;;;;;;3.59;64.68;98812.37;1757814;79;23148;-40
2021/01/26 07:28:17;;;;;;;6.97;4.62;;;;;;;3.56;64.23;98797.58;1734727;80;21118;-41
2021/01/26 07:31:02;;;;;;;5.90;4.03;;;;;;;3.57;64.32;98822.15;1733840;80;21122;-41
2021/01/26 07:33:38;;;;;;;5.37;3.50;;;;;;;3.58;64.20;98826.47;1685602;83;21184;-41
2021/01/26 07:36:23;;;;;;;4.85;3.25;;;;;;;3.61;64.29;98844.30;1794098;77;23590;-40
2021/01/26 07:39:19;;;;;;;4.45;3.35;;;;;;;3.58;63.79;98841.84;1774433;79;21608;-41
2021/01/26 07:41:55;;;;;;;6.95;4.05;;;;;;;3.57;64.20;98843.23;1772719;79;21153;-42
2021/01/26 07:44:30;;;;;;;6.47;3.40;;;;;;;3.59;64.32;98838.27;1774316;79;21142;-41
2021/01/26 07:47:06;;;;;;;4.25;3.10;;;;;;;3.60;64.15;98846.57;1719748;81;21174;-51
2021/01/26 07:50:10;;;;;;;4.12;2.83;;;;;;;3.60;64.06;98845.70;1708425;82;21685;-41
2021/01/26 07:52:40;;;;;;;9.78;5.58;;;;;;;3.61;64.01;98840.83;1702683;82;21137;-40
2021/01/26 07:55:37;;;;;;;5.75;3.70;;;;;;;3.61;64.00;98854.00;1721683;81;21119;-40
2021/01/26 07:58:10;;;;;;;4.17;3.10;;;;;;;3.61;64.06;98861.44;1713769;83;21161;-43
2021/01/26 08:00:41;;;;;;;4.70;3.20;;;;;;;3.63;64.01;98869.28;1692594;83;21141;-42
2021/01/26 08:03:09;;;;;;;4.50;2.75;;;;;;;3.66;64.10;98863.83;1692329;83;21168;-41
2021/01/26 08:05:48;;;;;;;7.80;5.58;;;;;;;3.68;64.01;98869.40;1704264;83;21185;-39
2021/01/26 08:08:35;;;;;;;5.80;3.90;;;;;;;3.72;64.03;98883.25;1704642;82;21156;-41
2021/01/26 08:11:21;;;;;;;8.08;4.08;;;;;;;3.76;64.22;98878.67;1676007;83;21165;-49
2021/01/26 08:14:07;;;;;;;5.70;3.42;;;;;;;3.76;64.16;98882.63;1654708;83;21594;-40
2021/01/26 08:16:52;;;;;;;4.22;3.10;;;;;;;3.76;63.96;98886.11;1723268;81;21149;-41
2021/01/26 08:19:34;;;;;;;4.17;2.70;;;;;;;3.82;63.86;98900.73;1801141;77;22933;-41
2021/01/26 08:22:21;;;;;;;4.70;2.67;;;;;;;3.77;63.63;98898.34;1719370;81;21680;-42
2021/01/26 08:25:00;;;;;;;6.87;3.20;;;;;;;3.79;63.69;98915.41;1720068;81;21150;-41
2021/01/26 08:27:45;;;;;;;3.22;2.60;;;;;;;3.79;63.70;98910.98;1635676;85;21875;-37
2021/01/26 08:30:16;;;;;;;8.35;3.45;;;;;;;3.79;63.64;98919.37;1668341;84;21205;-39
2021/01/26 08:33:11;;;;;;;3.77;3.00;;;;;;;3.79;63.71;98914.94;1779236;78;28058;-41
2021/01/26 08:36:04;;;;;;;4.10;2.55;;;;;;;3.77;63.57;98926.03;1767488;80;21608;-38
2021/01/26 08:38:53;;;;;;;6.45;2.95;;;;;;;3.80;63.25;98934.24;1775046;80;21236;-38
2021/01/26 08:41:42;;;;;;;3.83;2.40;;;;;;;3.78;63.30;98931.71;1772426;79;21240;-38
2021/01/26 08:44:28;;;;;;;3.25;2.40;;;;;;;3.78;63.38;98940.94;1774641;78;21207;-39
2021/01/26 08:46:56;;;;;;;2.90;2.17;;;;;;;3.76;63.13;98955.98;1764311;79;21164;-41
2021/01/26 08:49:34;;;;;;;3.92;2.60;;;;;;;3.73;63.10;98955.28;1768430;79;21480;-39
2021/01/26 08:52:25;;;;;;;4.05;2.37;;;;;;;3.72;63.05;98957.55;1766912;79;21588;-41
2021/01/26 08:54:55;;;;;;;4.25;2.90;;;;;;;3.67;62.69;98957.32;1774770;78;21238;-41
2021/01/26 08:57:35;;;;;;;4.10;2.75;;;;;;;3.67;62.97;98960.43;1778330;79;21149;-38
2021/01/26 09:00:43;;;;;;;3.33;2.42;;;;;;;3.68;62.86;98964.79;1767124;80;21126;-41
2021/01/26 09:03:30;;;;;;;3.85;2.17;;;;;;;3.69;62.80;98964.69;1703549;82;21204;-40
2021/01/26 09:06:04;;;;;;;6.62;4.53;;;;;;;3.67;62.77;98974.45;1698943;82;21390;-39
2021/01/26 09:08:47;;;;;;;7.75;4.05;;;;;;;3.68;62.76;98990.69;1700683;82;21176;-40
2021/01/26 09:11:33;;;;;;;4.80;2.15;;;;;;;3.67;62.68;99004.78;1657518;84;21209;-38
2021/01/26 09:14:06;;;;;;;3.77;2.37;;;;;;;3.68;62.61;99000.38;1663739;84;21245;-41
2021/01/26 09:16:41;;;;;;;4.42;2.58;;;;;;;3.71;62.62;99002.85;1801431;78;23684;-39
2021/01/26 09:19:15;;;;;;;3.70;2.27;;;;;;;3.70;62.59;99016.95;1770986;79;21144;-40
2021/01/26 09:21:43;;;;;;;3.45;2.60;;;;;;;3.71;62.33;99010.77;1767080;79;21133;-40
2021/01/26 09:24:11;;;;;;;3.02;2.00;;;;;;;3.72;62.38;99016.41;1736806;81;21118;-42
2021/01/26 09:26:39;;;;;;;2.92;2.17;;;;;;;3.72;62.55;99019.52;1721638;81;21181;-39
2021/01/26 09:29:07;;;;;;;2.40;1.72;;;;;;;3.73;62.55;99011.53;1718283;81;21171;-42
2021/01/26 09:31:37;;;;;;;3.47;2.20;;;;;;;3.75;62.58;99022.83;1718622;81;21188;-40
2021/01/26 09:34:06;;;;;;;3.10;1.80;;;;;;;3.75;62.55;99016.70;1704413;82;21323;-41
2021/01/26 09:36:35;;;;;;;3.67;2.27;;;;;;;3.75;62.57;99025.94;1718312;82;21311;-39
2021/01/26 09:39:09;;;;;;;2.67;1.40;;;;;;;3.73;62.37;99018.13;1724049;82;21145;-39
2021/01/26 09:41:37;;;;;;;3.00;2.30;;;;;;;3.70;62.26;99031.45;1720757;82;21552;-40
2021/01/26 09:44:09;;;;;;;4.72;2.98;;;;;;;3.69;62.47;99027.97;1722103;82;21150;-40
2021/01/26 09:46:41;;;;;;;3.37;2.10;;;;;;;3.68;62.50;99029.39;1718497;82;21118;-39
2021/01/26 09:49:23;;;;;;;2.92;2.15;;;;;;;3.67;62.41;99026.34;1717775;82;21153;-41
2021/01/26 09:51:58;;;;;;;3.67;2.15;;;;;;;3.66;62.64;99019.38;1717633;81;21161;-41
2021/01/26 09:54:32;;;;;;;3.33;1.87;;;;;;;3.66;62.62;99028.14;1725003;82;22029;-41
2021/01/26 09:57:01;;;;;;;3.90;2.67;;;;;;;3.68;62.81;99030.23;1722809;82;21157;-39
2021/01/26 09:59:31;;;;;;;4.08;2.05;;;;;;;3.71;62.71;99031.86;1680799;82;21183;-39
2021/01/26 10:02:01;;;;;;;3.83;2.40;;;;;;;3.73;62.64;99031.75;1702370;82;21178;-40
2021/01/26 10:04:34;;;;;;;10.25;7.30;;;;;;;3.72;62.61;99036.18;1698735;82;21177;-39
2021/01/26 10:07:04;;;;;;;4.22;2.87;;;;;;;3.74;62.53;99041.39;1698454;82;21608;-41
2021/01/26 10:09:33;;;;;;;6.05;2.98;;;;;;;3.74;62.52;99059.84;1699556;82;21318;-52
2021/01/26 10:12:28;;;;;;;5.20;2.65;;;;;;;3.75;62.61;99049.20;1697650;82;21175;-43
2021/01/26 10:15:26;;;;;;;3.55;2.30;;;;;;;3.75;62.65;99053.16;1698327;82;21203;-41
2021/01/26 10:18:14;;;;;;;4.58;2.52;;;;;;;3.78;62.83;99054.77;1685287;83;21158;-41
2021/01/26 10:20:57;;;;;;;3.52;2.20;;;;;;;3.80;62.77;99051.59;1684278;83;21154;-40
2021/01/26 10:23:32;;;;;;;3.67;2.17;;;;;;;3.85;62.60;99065.39;1739623;81;21153;-44
2021/01/26 10:26:25;;;;;;;3.55;2.22;;;;;;;3.88;62.48;99062.14;1741296;80;21573;-42
2021/01/26 10:32:11;;;;;;;2.55;1.92;;;;;;;3.98;62.37;99070.42;1788284;78;23090;-40
2021/01/26 10:34:46;;;;;;;2.92;1.92;;;;;;;3.96;62.06;99083.30;1764965;80;21153;-40
2021/01/26 10:37:29;;;;;;;3.77;2.02;;;;;;;3.96;62.17;99081.52;1783290;79;21696;-42
2021/01/26 10:40:21;;;;;;;5.67;2.47;;;;;;;3.98;62.15;99095.48;1773175;80;21157;-41
2021/01/26 10:43:13;;;;;;;;;;;;;;;4.01;62.14;99088.71;1768302;79;21195;-42
2021/01/26 10:45:46;;;;;;;4.97;3.17;;;;;;;4.02;61.91;99093.05;1775006;80;20163;-43
2021/01/26 10:48:32;;;;;;;3.67;2.22;;;;;;;4.02;61.98;99108.02;1747222;79;21607;-40
2021/01/26 10:51:14;;;;;;;4.17;3.05;;;;;;;4.00;61.94;99104.14;1756000;80;21177;-43
2021/01/26 10:53:46;;;;;;;4.28;3.10;;;;;;;4.00;61.74;99111.20;1761940;79;21278;-44
2021/01/26 10:56:14;;;;;;;5.35;3.05;;;;;;;4.01;61.66;99116.88;1698068;82;21847;-43
2021/01/26 10:58:43;;;;;;;5.00;2.37;;;;;;;4.01;61.77;99115.56;1711250;82;21180;-43
2021/01/26 11:01:14;;;;;;;4.00;2.30;;;;;;;4.02;61.84;99135.72;1700095;83;21226;-40
2021/01/26 11:03:42;;;;;;;4.20;2.50;;;;;;;4.00;61.34;99121.28;1694579;83;22079;-42
2021/01/26 11:06:12;;;;;;;3.87;2.47;;;;;;;3.98;61.24;99123.17;1710599;82;21195;-41
2021/01/26 11:08:47;;;;;;;4.62;2.60;;;;;;;3.97;61.38;99129.84;1685784;83;21180;-40
2021/01/26 11:11:15;;;;;;;3.25;2.05;;;;;;;3.97;61.73;99117.97;1710627;83;21314;-40
2021/01/26 11:13:43;;;;;;;5.37;2.77;;;;;;;3.97;61.36;99132.00;1692214;82;21195;-38
2021/01/26 11:16:11;;;;;;;3.37;2.15;;;;;;;3.99;61.03;99131.46;1695334;83;21718;-43
2021/01/26 11:18:39;;;;;;;5.33;2.37;;;;;;;3.99;60.79;99133.26;1705297;82;21181;-41
2021/01/26 11:21:08;;;;;;;4.25;2.58;;;;;;;3.98;60.77;99127.13;1690011;83;21493;-42
2021/01/26 11:23:37;;;;;;;6.78;4.33;;;;;;;3.99;60.87;99142.02;1690040;83;21227;-41
2021/01/26 11:26:04;;;;;;;6.25;3.40;;;;;;;4.00;60.61;99145.02;1690058;83;21173;-41
2021/01/26 11:28:33;;;;;;;3.98;2.37;;;;;;;4.02;60.58;99156.36;1721270;81;21149;-44
2021/01/26 11:31:01;;;;;;;4.55;2.83;;;;;;;4.02;60.46;99157.67;1694998;83;21172;-40
2021/01/26 11:33:30;;;;;;;3.42;2.17;;;;;;;4.04;60.63;99157.61;1677792;83;21724;-39
2021/01/26 11:36:01;;;;;;;4.20;2.02;;;;;;;4.07;60.60;99162.72;1709570;82;21582;-40
2021/01/26 11:38:30;;;;;;;11.78;8.73;;;;;;;4.09;60.34;99164.34;1687795;83;21166;-39
2021/01/26 11:41:00;;;;;;;5.55;4.08;;;;;;;4.09;60.35;99155.58;1692416;83;21197;-39
2021/01/26 11:43:28;;;;;;;5.50;3.83;;;;;;;4.08;60.48;99177.60;1717280;81;21153;-40
2021/01/26 11:45:56;;;;;;;4.78;2.65;;;;;;;4.10;60.32;99177.91;1684844;83;21178;-40
2021/01/26 11:48:25;;;;;;;4.80;2.90;;;;;;;4.12;60.31;99181.80;1691399;83;21181;-37
2021/01/26 11:50:54;;;;;;;3.58;2.37;;;;;;;4.13;60.35;99180.84;1726053;81;21190;-38
2021/01/26 11:53:21;;;;;;;3.58;2.42;;;;;;;4.14;60.01;99190.97;1728622;81;21185;-41
2021/01/26 11:55:50;;;;;;;3.30;2.12;;;;;;;4.12;59.80;99188.39;1725097;81;21158;-38
2021/01/26 11:58:19;;;;;;;3.95;2.22;;;;;;;4.11;59.83;99188.02;1728632;81;21123;-39
2021/01/26 12:00:51;;;;;;;4.40;2.77;;;;;;;4.08;59.46;99196.95;1727041;81;21185;-39
2021/01/26 12:03:18;;;;;;;3.60;2.17;;;;;;;4.06;59.63;99202.77;1724541;81;21166;-37
2021/01/26 12:05:46;;;;;;;7.87;5.33;;;;;;;4.04;59.69;99188.80;1701521;83;21214;-38
2021/01/26 12:08:16;;;;;;;13.43;6.75;;;;;;;4.06;59.80;99199.28;1704633;81;21182;-39
2021/01/26 12:10:47;;;;;;;5.47;2.95;;;;;;;4.07;59.77;99203.14;1717504;81;21182;-41
2021/01/26 12:13:18;;;;;;;4.80;2.70;;;;;;;4.08;59.77;99210.58;1713184;81;21160;-39
2021/01/26 12:15:49;;;;;;;4.55;2.33;;;;;;;4.10;59.94;99221.91;1724595;81;21166;-39
2021/01/26 12:18:21;;;;;;;3.05;2.20;;;;;;;4.14;59.76;99226.12;1714799;81;21782;-39
2021/01/26 12:20:53;;;;;;;6.08;2.87;;;;;;;4.16;59.93;99216.78;1711450;82;21172;-39
2021/01/26 12:23:21;;;;;;;5.08;2.95;;;;;;;4.17;60.36;99225.10;1718014;81;21190;-38
2021/01/26 12:25:49;;;;;;;5.60;3.05;;;;;;;4.18;60.17;99235.56;1704817;82;21152;-42
2021/01/26 12:28:17;;;;;;;4.60;2.77;;;;;;;4.22;60.30;99238.44;1722373;81;21182;-39
2021/01/26 12:30:44;;;;;;;3.45;2.30;;;;;;;4.25;60.10;99246.19;1721776;82;21657;-37
2021/01/26 12:33:12;;;;;;;3.58;1.98;;;;;;;4.25;59.73;99244.87;1716864;81;21700;-39
2021/01/26 12:35:41;;;;;;;9.83;7.72;;;;;;;4.23;59.20;99255.12;1722200;81;21142;-51
2021/01/26 12:38:21;;;;;;;12.07;9.53;;;;;;;4.21;59.30;99263.58;1716406;81;21175;-40
2021/01/26 12:40:50;;;;;;;5.33;3.75;;;;;;;4.18;59.52;99257.14;1712879;82;21145;-37
2021/01/26 12:43:18;;;;;;;3.50;2.05;;;;;;;4.16;59.46;99253.28;1729307;82;21676;-41
2021/01/26 12:45:46;;;;;;;3.27;1.85;;;;;;;4.16;59.62;99257.68;1706000;82;21182;-42
2021/01/26 12:48:13;;;;;;;3.15;2.10;;;;;;;4.15;59.69;99264.75;1697321;83;21181;-38
2021/01/26 12:50:46;;;;;;;3.67;2.30;;;;;;;4.15;59.73;99266.07;1698549;82;21633;-40
2021/01/26 12:53:13;;;;;;;4.00;1.92;;;;;;;4.17;59.47;99273.92;1693504;82;21244;-38
2021/01/26 12:55:40;;;;;;;3.77;2.45;;;;;;;4.14;59.14;99264.38;1701966;82;21226;-41
2021/01/26 12:58:11;;;;;;;2.77;1.80;;;;;;;4.11;59.31;99287.81;1684512;83;21264;-39
2021/01/26 13:00:39;;;;;;;3.15;2.08;;;;;;;4.09;59.41;99282.23;1691217;83;21164;-40
2021/01/26 13:03:06;;;;;;;2.72;1.82;;;;;;;4.07;59.52;99298.13;1697649;83;21203;-39
2021/01/26 13:05:34;;;;;;;3.72;2.05;;;;;;;4.05;59.38;99292.53;1695181;82;21175;-38
2021/01/26 13:08:02;;;;;;;3.65;2.12;;;;;;;4.05;59.63;99294.70;1699860;82;21181;-40